sensor_id;sensor_type;location;lat;lon;timestamp;P1;durP1;ratioP1;P2;durP2;ratioP2
8001;SDS011;4046;48.774;8.732;2023-09-12T00:00:54;6.40;;;5.90;;
8001;SDS011;4046;48.774;8.732;2023-09-12T00:03:20;7.23;;;6.73;;
8001;SDS011;4046;48.774;8.732;2023-09-12T00:05:53;6.47;;;6.07;;
8001;SDS011;4046;48.774;8.732;2023-09-12T00:08:21;6.80;;;6.33;;
8001;SDS011;4046;48.774;8.732;2023-09-12T00:10:47;6.40;;;6.00;;
8001;SDS011;4046;48.774;8.732;2023-09-12T00:13:23;7.20;;;6.70;;
8001;SDS011;4046;48.774;8.732;2023-09-12T00:15:48;6.10;;;5.70;;
8001;SDS011;4046;48.774;8.732;2023-09-12T00:18:14;6.87;;;6.20;;
8001;SDS011;4046;48.774;8.732;2023-09-12T00:20:40;6.90;;;6.40;;
8001;SDS011;4046;48.774;8.732;2023-09-12T00:23:05;6.73;;;6.23;;
8001;SDS011;4046;48.774;8.732;2023-09-12T00:25:31;6.73;;;6.13;;
8001;SDS011;4046;48.774;8.732;2023-09-12T00:27:57;6.37;;;5.97;;
8001;SDS011;4046;48.774;8.732;2023-09-12T00:30:23;6.57;;;6.17;;
8001;SDS011;4046;48.774;8.732;2023-09-12T00:32:48;6.90;;;6.40;;
8001;SDS011;4046;48.774;8.732;2023-09-12T00:35:14;6.00;;;5.60;;
8001;SDS011;4046;48.774;8.732;2023-09-12T00:37:39;6.00;;;5.63;;
8001;SDS011;4046;48.774;8.732;2023-09-12T00:40:06;6.97;;;6.47;;
8001;SDS011;4046;48.774;8.732;2023-09-12T00:42:32;6.43;;;6.03;;
8001;SDS011;4046;48.774;8.732;2023-09-12T00:44:58;6.57;;;6.17;;
8001;SDS011;4046;48.774;8.732;2023-09-12T00:47:23;6.80;;;6.30;;
8001;SDS011;4046;48.774;8.732;2023-09-12T00:49:49;6.07;;;5.67;;
8001;SDS011;4046;48.774;8.732;2023-09-12T00:52:16;6.80;;;6.30;;
8001;SDS011;4046;48.774;8.732;2023-09-12T00:54:43;6.60;;;6.10;;
8001;SDS011;4046;48.774;8.732;2023-09-12T00:57:09;6.60;;;6.10;;
8001;SDS011;4046;48.774;8.732;2023-09-12T00:59:34;6.47;;;6.03;;
8001;SDS011;4046;48.774;8.732;2023-09-12T01:02:01;6.40;;;6.00;;
8001;SDS011;4046;48.774;8.732;2023-09-12T01:04:27;6.30;;;5.90;;
8001;SDS011;4046;48.774;8.732;2023-09-12T01:06:54;8.10;;;7.30;;
8001;SDS011;4046;48.774;8.732;2023-09-12T01:09:20;6.17;;;5.77;;
8001;SDS011;4046;48.774;8.732;2023-09-12T01:11:46;6.13;;;5.73;;
8001;SDS011;4046;48.774;8.732;2023-09-12T01:14:12;6.57;;;6.17;;
8001;SDS011;4046;48.774;8.732;2023-09-12T01:16:37;6.20;;;5.80;;
8001;SDS011;4046;48.774;8.732;2023-09-12T01:19:03;7.10;;;6.43;;
8001;SDS011;4046;48.774;8.732;2023-09-12T01:24:11;6.23;;;5.70;;
8001;SDS011;4046;48.774;8.732;2023-09-12T01:26:55;6.33;;;5.83;;
8001;SDS011;4046;48.774;8.732;2023-09-12T01:29:44;5.80;;;5.40;;
8001;SDS011;4046;48.774;8.732;2023-09-12T01:32:11;6.43;;;5.97;;
8001;SDS011;4046;48.774;8.732;2023-09-12T01:34:39;6.20;;;5.80;;
8001;SDS011;4046;48.774;8.732;2023-09-12T01:37:05;6.07;;;5.67;;
8001;SDS011;4046;48.774;8.732;2023-09-12T01:39:31;7.20;;;6.50;;
8001;SDS011;4046;48.774;8.732;2023-09-12T01:41:56;6.00;;;5.60;;
8001;SDS011;4046;48.774;8.732;2023-09-12T01:44:24;7.20;;;6.70;;
8001;SDS011;4046;48.774;8.732;2023-09-12T01:46:53;6.30;;;5.83;;
8001;SDS011;4046;48.774;8.732;2023-09-12T01:49:20;6.47;;;6.07;;
8001;SDS011;4046;48.774;8.732;2023-09-12T01:51:49;6.70;;;6.20;;
8001;SDS011;4046;48.774;8.732;2023-09-12T01:54:16;6.30;;;5.87;;
8001;SDS011;4046;48.774;8.732;2023-09-12T01:56:42;6.00;;;5.60;;
8001;SDS011;4046;48.774;8.732;2023-09-12T01:59:08;6.40;;;5.97;;
8001;SDS011;4046;48.774;8.732;2023-09-12T02:01:34;6.63;;;6.07;;
8001;SDS011;4046;48.774;8.732;2023-09-12T02:04:00;6.40;;;6.00;;
8001;SDS011;4046;48.774;8.732;2023-09-12T02:06:27;6.67;;;6.27;;
8001;SDS011;4046;48.774;8.732;2023-09-12T02:08:53;6.93;;;6.37;;
8001;SDS011;4046;48.774;8.732;2023-09-12T02:11:19;6.83;;;6.33;;
8001;SDS011;4046;48.774;8.732;2023-09-12T02:13:45;6.63;;;6.13;;
8001;SDS011;4046;48.774;8.732;2023-09-12T02:16:11;6.60;;;6.20;;
8001;SDS011;4046;48.774;8.732;2023-09-12T02:18:37;6.30;;;5.80;;
8001;SDS011;4046;48.774;8.732;2023-09-12T02:21:03;6.30;;;5.90;;
8001;SDS011;4046;48.774;8.732;2023-09-12T02:23:28;6.77;;;6.27;;
8001;SDS011;4046;48.774;8.732;2023-09-12T02:25:55;6.93;;;6.33;;
8001;SDS011;4046;48.774;8.732;2023-09-12T02:28:21;6.63;;;6.20;;
8001;SDS011;4046;48.774;8.732;2023-09-12T02:30:47;6.67;;;6.27;;
8001;SDS011;4046;48.774;8.732;2023-09-12T02:33:13;7.33;;;6.83;;
8001;SDS011;4046;48.774;8.732;2023-09-12T02:35:38;6.23;;;5.83;;
8001;SDS011;4046;48.774;8.732;2023-09-12T02:38:04;6.70;;;6.10;;
8001;SDS011;4046;48.774;8.732;2023-09-12T02:40:30;7.00;;;6.40;;
8001;SDS011;4046;48.774;8.732;2023-09-12T02:42:56;6.80;;;6.30;;
8001;SDS011;4046;48.774;8.732;2023-09-12T02:45:21;6.20;;;5.80;;
8001;SDS011;4046;48.774;8.732;2023-09-12T02:47:47;6.90;;;6.30;;
8001;SDS011;4046;48.774;8.732;2023-09-12T02:50:13;6.20;;;5.80;;
8001;SDS011;4046;48.774;8.732;2023-09-12T02:52:38;7.23;;;6.70;;
8001;SDS011;4046;48.774;8.732;2023-09-12T02:55:04;7.10;;;6.43;;
8001;SDS011;4046;48.774;8.732;2023-09-12T02:57:30;7.57;;;6.97;;
8001;SDS011;4046;48.774;8.732;2023-09-12T02:59:56;6.80;;;6.33;;
8001;SDS011;4046;48.774;8.732;2023-09-12T03:02:22;6.13;;;5.73;;
8001;SDS011;4046;48.774;8.732;2023-09-12T03:04:47;6.80;;;6.27;;
8001;SDS011;4046;48.774;8.732;2023-09-12T03:07:13;6.40;;;6.00;;
8001;SDS011;4046;48.774;8.732;2023-09-12T03:09:39;6.47;;;6.07;;
8001;SDS011;4046;48.774;8.732;2023-09-12T03:12:05;6.27;;;5.87;;
8001;SDS011;4046;48.774;8.732;2023-09-12T03:14:30;6.53;;;5.93;;
8001;SDS011;4046;48.774;8.732;2023-09-12T03:16:56;6.30;;;5.80;;
8001;SDS011;4046;48.774;8.732;2023-09-12T03:19:22;6.43;;;6.00;;
8001;SDS011;4046;48.774;8.732;2023-09-12T03:21:47;6.80;;;6.30;;
8001;SDS011;4046;48.774;8.732;2023-09-12T03:24:13;7.30;;;6.67;;
8001;SDS011;4046;48.774;8.732;2023-09-12T03:26:38;6.80;;;6.30;;
8001;SDS011;4046;48.774;8.732;2023-09-12T03:29:04;6.33;;;5.93;;
8001;SDS011;4046;48.774;8.732;2023-09-12T03:31:30;6.20;;;5.80;;
8001;SDS011;4046;48.774;8.732;2023-09-12T03:33:56;6.30;;;5.90;;
8001;SDS011;4046;48.774;8.732;2023-09-12T03:36:22;6.30;;;5.90;;
8001;SDS011;4046;48.774;8.732;2023-09-12T03:38:47;6.43;;;6.03;;
8001;SDS011;4046;48.774;8.732;2023-09-12T03:41:13;6.67;;;6.17;;
8001;SDS011;4046;48.774;8.732;2023-09-12T03:43:38;6.80;;;6.30;;
8001;SDS011;4046;48.774;8.732;2023-09-12T03:46:04;6.60;;;6.20;;
8001;SDS011;4046;48.774;8.732;2023-09-12T03:48:30;6.70;;;6.30;;
8001;SDS011;4046;48.774;8.732;2023-09-12T03:50:57;6.47;;;5.97;;
8001;SDS011;4046;48.774;8.732;2023-09-12T03:53:22;7.00;;;6.50;;
8001;SDS011;4046;48.774;8.732;2023-09-12T03:55:48;6.33;;;5.93;;
8001;SDS011;4046;48.774;8.732;2023-09-12T03:58:14;6.30;;;5.70;;
8001;SDS011;4046;48.774;8.732;2023-09-12T04:00:40;6.53;;;6.03;;
8001;SDS011;4046;48.774;8.732;2023-09-12T04:03:05;6.70;;;6.20;;
8001;SDS011;4046;48.774;8.732;2023-09-12T04:05:31;6.30;;;5.80;;
8001;SDS011;4046;48.774;8.732;2023-09-12T04:07:57;6.03;;;5.63;;
8001;SDS011;4046;48.774;8.732;2023-09-12T04:10:22;6.33;;;5.93;;
8001;SDS011;4046;48.774;8.732;2023-09-12T04:12:48;6.97;;;6.47;;
8001;SDS011;4046;48.774;8.732;2023-09-12T04:15:14;6.33;;;5.93;;
8001;SDS011;4046;48.774;8.732;2023-09-12T04:17:39;6.57;;;6.17;;
8001;SDS011;4046;48.774;8.732;2023-09-12T04:20:05;6.40;;;6.00;;
8001;SDS011;4046;48.774;8.732;2023-09-12T04:22:32;6.47;;;5.97;;
8001;SDS011;4046;48.774;8.732;2023-09-12T04:24:58;6.87;;;6.23;;
8001;SDS011;4046;48.774;8.732;2023-09-12T04:27:24;6.93;;;6.43;;
8001;SDS011;4046;48.774;8.732;2023-09-12T04:29:50;6.33;;;5.93;;
8001;SDS011;4046;48.774;8.732;2023-09-12T04:32:15;7.00;;;6.50;;
8001;SDS011;4046;48.774;8.732;2023-09-12T04:34:48;5.90;;;5.53;;
8001;SDS011;4046;48.774;8.732;2023-09-12T04:37:17;6.50;;;6.03;;
8001;SDS011;4046;48.774;8.732;2023-09-12T04:39:42;6.80;;;6.27;;
8001;SDS011;4046;48.774;8.732;2023-09-12T04:42:08;6.23;;;5.83;;
8001;SDS011;4046;48.774;8.732;2023-09-12T04:44:40;5.90;;;5.53;;
8001;SDS011;4046;48.774;8.732;2023-09-12T04:47:07;5.87;;;5.47;;
8001;SDS011;4046;48.774;8.732;2023-09-12T04:49:33;6.83;;;6.30;;
8001;SDS011;4046;48.774;8.732;2023-09-12T04:51:59;6.47;;;6.07;;
8001;SDS011;4046;48.774;8.732;2023-09-12T04:54:25;6.73;;;6.33;;
8001;SDS011;4046;48.774;8.732;2023-09-12T04:56:50;6.03;;;5.63;;
8001;SDS011;4046;48.774;8.732;2023-09-12T04:59:16;7.00;;;6.50;;
8001;SDS011;4046;48.774;8.732;2023-09-12T05:01:42;6.90;;;6.40;;
8001;SDS011;4046;48.774;8.732;2023-09-12T05:04:08;6.80;;;6.40;;
8001;SDS011;4046;48.774;8.732;2023-09-12T05:06:35;6.70;;;6.20;;
8001;SDS011;4046;48.774;8.732;2023-09-12T05:09:00;6.60;;;6.10;;
8001;SDS011;4046;48.774;8.732;2023-09-12T05:11:26;6.77;;;6.13;;
8001;SDS011;4046;48.774;8.732;2023-09-12T05:13:52;6.50;;;6.10;;
8001;SDS011;4046;48.774;8.732;2023-09-12T05:16:18;6.73;;;6.30;;
8001;SDS011;4046;48.774;8.732;2023-09-12T05:18:44;6.70;;;6.30;;
8001;SDS011;4046;48.774;8.732;2023-09-12T05:21:09;6.47;;;5.97;;
8001;SDS011;4046;48.774;8.732;2023-09-12T05:23:35;7.23;;;6.53;;
8001;SDS011;4046;48.774;8.732;2023-09-12T05:26:01;6.70;;;6.30;;
8001;SDS011;4046;48.774;8.732;2023-09-12T05:28:28;7.20;;;6.70;;
8001;SDS011;4046;48.774;8.732;2023-09-12T05:30:53;6.63;;;6.13;;
8001;SDS011;4046;48.774;8.732;2023-09-12T05:33:19;6.40;;;6.00;;
8001;SDS011;4046;48.774;8.732;2023-09-12T05:35:45;6.40;;;5.90;;
8001;SDS011;4046;48.774;8.732;2023-09-12T05:38:11;7.47;;;6.97;;
8001;SDS011;4046;48.774;8.732;2023-09-12T05:40:36;6.57;;;6.07;;
8001;SDS011;4046;48.774;8.732;2023-09-12T05:43:02;6.93;;;6.43;;
8001;SDS011;4046;48.774;8.732;2023-09-12T05:45:28;6.90;;;6.40;;
8001;SDS011;4046;48.774;8.732;2023-09-12T05:47:58;6.73;;;6.23;;
8001;SDS011;4046;48.774;8.732;2023-09-12T05:50:24;7.13;;;6.63;;
8001;SDS011;4046;48.774;8.732;2023-09-12T05:52:49;6.90;;;6.40;;
8001;SDS011;4046;48.774;8.732;2023-09-12T05:55:16;6.20;;;5.80;;
8001;SDS011;4046;48.774;8.732;2023-09-12T05:57:42;6.53;;;6.03;;
8001;SDS011;4046;48.774;8.732;2023-09-12T06:00:09;6.70;;;6.20;;
8001;SDS011;4046;48.774;8.732;2023-09-12T06:02:37;7.10;;;6.60;;
8001;SDS011;4046;48.774;8.732;2023-09-12T06:05:04;6.37;;;5.87;;
8001;SDS011;4046;48.774;8.732;2023-09-12T06:07:30;6.30;;;5.90;;
8001;SDS011;4046;48.774;8.732;2023-09-12T06:09:57;6.60;;;6.20;;
8001;SDS011;4046;48.774;8.732;2023-09-12T06:12:23;7.20;;;6.60;;
8001;SDS011;4046;48.774;8.732;2023-09-12T06:14:49;6.63;;;6.23;;
8001;SDS011;4046;48.774;8.732;2023-09-12T06:17:15;6.53;;;6.13;;
8001;SDS011;4046;48.774;8.732;2023-09-12T06:19:41;7.47;;;6.97;;
8001;SDS011;4046;48.774;8.732;2023-09-12T06:22:07;6.30;;;5.90;;
8001;SDS011;4046;48.774;8.732;2023-09-12T06:24:32;6.50;;;6.10;;
8001;SDS011;4046;48.774;8.732;2023-09-12T06:26:58;6.67;;;6.27;;
8001;SDS011;4046;48.774;8.732;2023-09-12T06:29:24;6.50;;;6.10;;
8001;SDS011;4046;48.774;8.732;2023-09-12T06:31:49;6.73;;;6.30;;
8001;SDS011;4046;48.774;8.732;2023-09-12T06:34:15;6.50;;;6.10;;
8001;SDS011;4046;48.774;8.732;2023-09-12T06:36:41;6.90;;;6.40;;
8001;SDS011;4046;48.774;8.732;2023-09-12T06:39:09;6.90;;;6.33;;
8001;SDS011;4046;48.774;8.732;2023-09-12T06:41:36;7.57;;;6.80;;
8001;SDS011;4046;48.774;8.732;2023-09-12T06:44:01;6.43;;;6.03;;
8001;SDS011;4046;48.774;8.732;2023-09-12T06:46:29;6.90;;;6.50;;
8001;SDS011;4046;48.774;8.732;2023-09-12T06:48:55;6.53;;;6.13;;
8001;SDS011;4046;48.774;8.732;2023-09-12T06:51:24;6.40;;;5.90;;
8001;SDS011;4046;48.774;8.732;2023-09-12T06:53:51;6.77;;;6.37;;
8001;SDS011;4046;48.774;8.732;2023-09-12T06:56:17;6.77;;;6.37;;
8001;SDS011;4046;48.774;8.732;2023-09-12T06:58:43;6.70;;;6.30;;
8001;SDS011;4046;48.774;8.732;2023-09-12T07:01:08;6.20;;;5.80;;
8001;SDS011;4046;48.774;8.732;2023-09-12T07:03:34;7.30;;;6.87;;
8001;SDS011;4046;48.774;8.732;2023-09-12T07:06:01;7.23;;;6.73;;
8001;SDS011;4046;48.774;8.732;2023-09-12T07:08:29;6.80;;;6.30;;
8001;SDS011;4046;48.774;8.732;2023-09-12T07:10:55;6.73;;;6.07;;
8001;SDS011;4046;48.774;8.732;2023-09-12T07:13:22;6.60;;;6.10;;
8001;SDS011;4046;48.774;8.732;2023-09-12T07:15:52;6.63;;;6.23;;
8001;SDS011;4046;48.774;8.732;2023-09-12T07:18:17;6.43;;;5.93;;
8001;SDS011;4046;48.774;8.732;2023-09-12T07:20:44;6.43;;;6.03;;
8001;SDS011;4046;48.774;8.732;2023-09-12T07:23:10;6.57;;;6.07;;
8001;SDS011;4046;48.774;8.732;2023-09-12T07:25:39;7.10;;;6.60;;
8001;SDS011;4046;48.774;8.732;2023-09-12T07:28:09;6.80;;;6.37;;
8001;SDS011;4046;48.774;8.732;2023-09-12T07:30:34;6.20;;;5.80;;
8001;SDS011;4046;48.774;8.732;2023-09-12T07:33:00;7.07;;;6.47;;
8001;SDS011;4046;48.774;8.732;2023-09-12T07:35:28;6.07;;;5.67;;
8001;SDS011;4046;48.774;8.732;2023-09-12T07:37:55;7.33;;;6.80;;
8001;SDS011;4046;48.774;8.732;2023-09-12T07:40:21;16.83;;;6.60;;
8001;SDS011;4046;48.774;8.732;2023-09-12T07:42:47;8.83;;;6.87;;
8001;SDS011;4046;48.774;8.732;2023-09-12T07:45:12;9.10;;;6.83;;
8001;SDS011;4046;48.774;8.732;2023-09-12T07:47:39;15.07;;;6.07;;
8001;SDS011;4046;48.774;8.732;2023-09-12T07:50:05;10.00;;;6.97;;
8001;SDS011;4046;48.774;8.732;2023-09-12T07:52:31;14.23;;;7.67;;
8001;SDS011;4046;48.774;8.732;2023-09-12T07:54:59;6.83;;;6.03;;
8001;SDS011;4046;48.774;8.732;2023-09-12T07:57:25;12.97;;;6.80;;
8001;SDS011;4046;48.774;8.732;2023-09-12T07:59:51;10.80;;;6.53;;
8001;SDS011;4046;48.774;8.732;2023-09-12T08:02:17;9.20;;;6.27;;
8001;SDS011;4046;48.774;8.732;2023-09-12T08:04:42;9.27;;;6.87;;
8001;SDS011;4046;48.774;8.732;2023-09-12T08:07:08;7.87;;;6.20;;
8001;SDS011;4046;48.774;8.732;2023-09-12T08:12:33;8.30;;;6.50;;
8001;SDS011;4046;48.774;8.732;2023-09-12T08:15:00;9.47;;;6.67;;
8001;SDS011;4046;48.774;8.732;2023-09-12T08:17:25;9.30;;;6.00;;
8001;SDS011;4046;48.774;8.732;2023-09-12T08:19:51;6.50;;;6.00;;
8001;SDS011;4046;48.774;8.732;2023-09-12T08:22:17;6.53;;;5.93;;
8001;SDS011;4046;48.774;8.732;2023-09-12T08:24:44;8.33;;;5.93;;
8001;SDS011;4046;48.774;8.732;2023-09-12T08:27:09;6.50;;;5.90;;
8001;SDS011;4046;48.774;8.732;2023-09-12T08:29:35;6.50;;;5.93;;
8001;SDS011;4046;48.774;8.732;2023-09-12T08:32:01;9.87;;;6.90;;
8001;SDS011;4046;48.774;8.732;2023-09-12T08:34:27;6.53;;;5.93;;
8001;SDS011;4046;48.774;8.732;2023-09-12T08:36:53;6.43;;;5.77;;
8001;SDS011;4046;48.774;8.732;2023-09-12T08:39:26;10.20;;;5.97;;
8001;SDS011;4046;48.774;8.732;2023-09-12T08:41:53;6.37;;;5.77;;
8001;SDS011;4046;48.774;8.732;2023-09-12T08:44:20;6.40;;;5.90;;
8001;SDS011;4046;48.774;8.732;2023-09-12T08:46:46;6.63;;;5.87;;
8001;SDS011;4046;48.774;8.732;2023-09-12T08:49:12;6.00;;;5.60;;
8001;SDS011;4046;48.774;8.732;2023-09-12T08:51:39;7.43;;;6.50;;
8001;SDS011;4046;48.774;8.732;2023-09-12T08:54:06;7.03;;;6.53;;
8001;SDS011;4046;48.774;8.732;2023-09-12T08:56:32;5.93;;;5.50;;
8001;SDS011;4046;48.774;8.732;2023-09-12T08:59:01;7.17;;;6.10;;
8001;SDS011;4046;48.774;8.732;2023-09-12T09:01:27;5.90;;;5.43;;
8001;SDS011;4046;48.774;8.732;2023-09-12T09:03:56;6.60;;;6.10;;
8001;SDS011;4046;48.774;8.732;2023-09-12T09:06:22;6.53;;;5.97;;
8001;SDS011;4046;48.774;8.732;2023-09-12T09:08:49;6.43;;;5.93;;
8001;SDS011;4046;48.774;8.732;2023-09-12T09:11:16;5.93;;;5.40;;
8001;SDS011;4046;48.774;8.732;2023-09-12T09:13:41;6.60;;;6.10;;
8001;SDS011;4046;48.774;8.732;2023-09-12T09:18:50;5.80;;;5.40;;
8001;SDS011;4046;48.774;8.732;2023-09-12T09:21:17;6.43;;;5.93;;
8001;SDS011;4046;48.774;8.732;2023-09-12T09:23:47;6.23;;;5.83;;
8001;SDS011;4046;48.774;8.732;2023-09-12T09:26:13;6.53;;;6.00;;
8001;SDS011;4046;48.774;8.732;2023-09-12T09:28:39;6.10;;;5.70;;
8001;SDS011;4046;48.774;8.732;2023-09-12T09:31:09;5.50;;;5.20;;
8001;SDS011;4046;48.774;8.732;2023-09-12T09:33:36;5.63;;;5.17;;
8001;SDS011;4046;48.774;8.732;2023-09-12T09:36:04;5.50;;;5.10;;
8001;SDS011;4046;48.774;8.732;2023-09-12T09:38:31;5.80;;;5.40;;
8001;SDS011;4046;48.774;8.732;2023-09-12T09:41:00;5.50;;;5.20;;
8001;SDS011;4046;48.774;8.732;2023-09-12T09:43:29;6.20;;;5.80;;
8001;SDS011;4046;48.774;8.732;2023-09-12T09:45:57;7.07;;;6.57;;
8001;SDS011;4046;48.774;8.732;2023-09-12T09:48:24;5.73;;;5.33;;
8001;SDS011;4046;48.774;8.732;2023-09-12T09:50:59;5.83;;;5.43;;
8001;SDS011;4046;48.774;8.732;2023-09-12T09:53:27;5.50;;;5.00;;
8001;SDS011;4046;48.774;8.732;2023-09-12T09:56:12;5.77;;;5.37;;
8001;SDS011;4046;48.774;8.732;2023-09-12T09:58:51;6.20;;;5.70;;
8001;SDS011;4046;48.774;8.732;2023-09-12T10:01:19;5.73;;;5.33;;
8001;SDS011;4046;48.774;8.732;2023-09-12T10:03:47;5.70;;;5.30;;
8001;SDS011;4046;48.774;8.732;2023-09-12T10:06:15;5.80;;;5.40;;
8001;SDS011;4046;48.774;8.732;2023-09-12T10:08:43;5.70;;;5.40;;
8001;SDS011;4046;48.774;8.732;2023-09-12T10:11:11;6.10;;;5.70;;
8001;SDS011;4046;48.774;8.732;2023-09-12T10:13:41;5.60;;;5.20;;
8001;SDS011;4046;48.774;8.732;2023-09-12T10:16:24;5.67;;;5.27;;
8001;SDS011;4046;48.774;8.732;2023-09-12T10:18:56;5.67;;;5.33;;
8001;SDS011;4046;48.774;8.732;2023-09-12T10:21:28;6.30;;;5.80;;
8001;SDS011;4046;48.774;8.732;2023-09-12T10:23:58;5.87;;;5.50;;
8001;SDS011;4046;48.774;8.732;2023-09-12T10:26:24;5.40;;;5.00;;
8001;SDS011;4046;48.774;8.732;2023-09-12T10:28:50;5.00;;;4.70;;
8001;SDS011;4046;48.774;8.732;2023-09-12T10:31:17;5.90;;;5.50;;
8001;SDS011;4046;48.774;8.732;2023-09-12T10:33:43;6.13;;;5.63;;
8001;SDS011;4046;48.774;8.732;2023-09-12T10:36:11;5.40;;;5.10;;
8001;SDS011;4046;48.774;8.732;2023-09-12T10:38:42;5.13;;;4.83;;
8001;SDS011;4046;48.774;8.732;2023-09-12T10:41:12;5.30;;;4.97;;
8001;SDS011;4046;48.774;8.732;2023-09-12T10:43:40;6.03;;;5.63;;
8001;SDS011;4046;48.774;8.732;2023-09-12T10:46:07;5.13;;;4.80;;
8001;SDS011;4046;48.774;8.732;2023-09-12T10:48:37;5.20;;;4.90;;
8001;SDS011;4046;48.774;8.732;2023-09-12T10:51:05;5.30;;;5.00;;
8001;SDS011;4046;48.774;8.732;2023-09-12T10:53:33;5.53;;;5.23;;
8001;SDS011;4046;48.774;8.732;2023-09-12T10:55:59;5.33;;;4.83;;
8001;SDS011;4046;48.774;8.732;2023-09-12T10:58:26;5.10;;;4.80;;
8001;SDS011;4046;48.774;8.732;2023-09-12T11:03:48;5.77;;;5.27;;
8001;SDS011;4046;48.774;8.732;2023-09-12T11:06:21;5.03;;;4.73;;
8001;SDS011;4046;48.774;8.732;2023-09-12T11:09:35;5.10;;;4.80;;
8001;SDS011;4046;48.774;8.732;2023-09-12T11:11:47;5.43;;;4.93;;
8001;SDS011;4046;48.774;8.732;2023-09-12T11:14:30;5.57;;;5.27;;
8001;SDS011;4046;48.774;8.732;2023-09-12T11:19:48;5.33;;;5.03;;
8001;SDS011;4046;48.774;8.732;2023-09-12T11:22:20;5.47;;;5.17;;
8001;SDS011;4046;48.774;8.732;2023-09-12T11:24:46;5.60;;;5.27;;
8001;SDS011;4046;48.774;8.732;2023-09-12T11:27:12;5.60;;;5.30;;
8001;SDS011;4046;48.774;8.732;2023-09-12T11:29:39;5.20;;;4.90;;
8001;SDS011;4046;48.774;8.732;2023-09-12T11:32:06;5.30;;;5.00;;
8001;SDS011;4046;48.774;8.732;2023-09-12T11:34:36;5.70;;;5.30;;
8001;SDS011;4046;48.774;8.732;2023-09-12T11:37:06;6.10;;;5.50;;
8001;SDS011;4046;48.774;8.732;2023-09-12T11:39:32;5.47;;;5.17;;
8001;SDS011;4046;48.774;8.732;2023-09-12T11:42:00;6.00;;;5.60;;
8001;SDS011;4046;48.774;8.732;2023-09-12T11:44:27;5.50;;;5.20;;
8001;SDS011;4046;48.774;8.732;2023-09-12T11:46:56;5.33;;;5.03;;
8001;SDS011;4046;48.774;8.732;2023-09-12T11:49:34;5.77;;;5.37;;
8001;SDS011;4046;48.774;8.732;2023-09-12T11:52:02;5.70;;;5.20;;
8001;SDS011;4046;48.774;8.732;2023-09-12T11:54:29;5.40;;;5.10;;
8001;SDS011;4046;48.774;8.732;2023-09-12T11:56:57;5.47;;;5.10;;
8001;SDS011;4046;48.774;8.732;2023-09-12T11:59:27;5.93;;;5.53;;
8001;SDS011;4046;48.774;8.732;2023-09-12T12:01:56;5.47;;;5.07;;
8001;SDS011;4046;48.774;8.732;2023-09-12T12:04:23;5.07;;;4.77;;
8001;SDS011;4046;48.774;8.732;2023-09-12T12:06:50;5.27;;;4.97;;
8001;SDS011;4046;48.774;8.732;2023-09-12T12:09:17;5.80;;;5.43;;
8001;SDS011;4046;48.774;8.732;2023-09-12T12:11:45;5.17;;;4.87;;
8001;SDS011;4046;48.774;8.732;2023-09-12T12:14:12;6.30;;;5.80;;
8001;SDS011;4046;48.774;8.732;2023-09-12T12:16:40;5.00;;;4.70;;
8001;SDS011;4046;48.774;8.732;2023-09-12T12:19:06;5.63;;;5.23;;
8001;SDS011;4046;48.774;8.732;2023-09-12T12:21:32;5.13;;;4.83;;
8001;SDS011;4046;48.774;8.732;2023-09-12T12:23:58;4.97;;;4.67;;
8001;SDS011;4046;48.774;8.732;2023-09-12T12:26:28;5.47;;;5.17;;
8001;SDS011;4046;48.774;8.732;2023-09-12T12:28:55;4.90;;;4.60;;
8001;SDS011;4046;48.774;8.732;2023-09-12T12:31:21;5.40;;;5.10;;
8001;SDS011;4046;48.774;8.732;2023-09-12T12:33:50;5.60;;;5.27;;
8001;SDS011;4046;48.774;8.732;2023-09-12T12:36:18;5.47;;;5.17;;
8001;SDS011;4046;48.774;8.732;2023-09-12T12:38:45;5.30;;;5.00;;
8001;SDS011;4046;48.774;8.732;2023-09-12T12:44:08;5.13;;;4.83;;
8001;SDS011;4046;48.774;8.732;2023-09-12T12:46:47;4.97;;;4.67;;
8001;SDS011;4046;48.774;8.732;2023-09-12T12:49:15;5.63;;;5.30;;
8001;SDS011;4046;48.774;8.732;2023-09-12T12:51:41;5.63;;;5.23;;
8001;SDS011;4046;48.774;8.732;2023-09-12T12:54:07;5.20;;;4.90;;
8001;SDS011;4046;48.774;8.732;2023-09-12T12:56:33;5.30;;;5.00;;
8001;SDS011;4046;48.774;8.732;2023-09-12T12:59:00;5.13;;;4.83;;
8001;SDS011;4046;48.774;8.732;2023-09-12T13:01:33;4.70;;;4.40;;
8001;SDS011;4046;48.774;8.732;2023-09-12T13:03:59;5.77;;;5.00;;
8001;SDS011;4046;48.774;8.732;2023-09-12T13:06:25;5.93;;;5.23;;
8001;SDS011;4046;48.774;8.732;2023-09-12T13:08:53;5.80;;;5.40;;
8001;SDS011;4046;48.774;8.732;2023-09-12T13:11:18;8.43;;;4.83;;
8001;SDS011;4046;48.774;8.732;2023-09-12T13:13:44;9.13;;;5.80;;
8001;SDS011;4046;48.774;8.732;2023-09-12T13:16:14;5.87;;;5.47;;
8001;SDS011;4046;48.774;8.732;2023-09-12T13:18:40;6.43;;;5.83;;
8001;SDS011;4046;48.774;8.732;2023-09-12T13:21:06;13.27;;;6.33;;
8001;SDS011;4046;48.774;8.732;2023-09-12T13:23:36;8.60;;;5.77;;
8001;SDS011;4046;48.774;8.732;2023-09-12T13:26:03;10.57;;;5.73;;
8001;SDS011;4046;48.774;8.732;2023-09-12T13:28:30;6.00;;;5.40;;
8001;SDS011;4046;48.774;8.732;2023-09-12T13:30:56;7.33;;;5.57;;
8001;SDS011;4046;48.774;8.732;2023-09-12T13:33:24;9.90;;;6.07;;
8001;SDS011;4046;48.774;8.732;2023-09-12T13:35:50;17.40;;;6.53;;
8001;SDS011;4046;48.774;8.732;2023-09-12T13:38:16;13.63;;;5.60;;
8001;SDS011;4046;48.774;8.732;2023-09-12T13:40:44;9.03;;;5.63;;
8001;SDS011;4046;48.774;8.732;2023-09-12T13:43:11;6.80;;;6.00;;
8001;SDS011;4046;48.774;8.732;2023-09-12T13:45:37;8.43;;;6.20;;
8001;SDS011;4046;48.774;8.732;2023-09-12T13:48:04;12.53;;;5.73;;
8001;SDS011;4046;48.774;8.732;2023-09-12T13:50:30;8.03;;;5.87;;
8001;SDS011;4046;48.774;8.732;2023-09-12T13:52:58;11.40;;;6.30;;
8001;SDS011;4046;48.774;8.732;2023-09-12T13:55:32;8.53;;;5.70;;
8001;SDS011;4046;48.774;8.732;2023-09-12T13:58:05;12.43;;;5.80;;
8001;SDS011;4046;48.774;8.732;2023-09-12T14:00:34;10.77;;;6.23;;
8001;SDS011;4046;48.774;8.732;2023-09-12T14:03:01;7.77;;;6.57;;
8001;SDS011;4046;48.774;8.732;2023-09-12T14:05:26;6.77;;;6.17;;
8001;SDS011;4046;48.774;8.732;2023-09-12T14:07:53;9.13;;;6.23;;
8001;SDS011;4046;48.774;8.732;2023-09-12T14:10:18;7.23;;;6.53;;
8001;SDS011;4046;48.774;8.732;2023-09-12T14:12:44;8.60;;;6.20;;
8001;SDS011;4046;48.774;8.732;2023-09-12T14:15:11;6.83;;;6.27;;
8001;SDS011;4046;48.774;8.732;2023-09-12T14:17:39;6.33;;;5.80;;
8001;SDS011;4046;48.774;8.732;2023-09-12T14:20:06;8.53;;;6.50;;
8001;SDS011;4046;48.774;8.732;2023-09-12T14:22:32;7.80;;;6.50;;
8001;SDS011;4046;48.774;8.732;2023-09-12T14:24:58;7.10;;;6.40;;
8001;SDS011;4046;48.774;8.732;2023-09-12T14:27:24;6.50;;;5.90;;
8001;SDS011;4046;48.774;8.732;2023-09-12T14:29:49;6.63;;;6.03;;
8001;SDS011;4046;48.774;8.732;2023-09-12T14:32:16;6.17;;;5.70;;
8001;SDS011;4046;48.774;8.732;2023-09-12T14:34:41;6.70;;;6.07;;
8001;SDS011;4046;48.774;8.732;2023-09-12T14:37:07;8.20;;;6.00;;
8001;SDS011;4046;48.774;8.732;2023-09-12T14:39:33;6.50;;;6.00;;
8001;SDS011;4046;48.774;8.732;2023-09-12T14:41:59;6.77;;;6.27;;
8001;SDS011;4046;48.774;8.732;2023-09-12T14:44:26;7.20;;;6.60;;
8001;SDS011;4046;48.774;8.732;2023-09-12T14:46:53;7.10;;;6.50;;
8001;SDS011;4046;48.774;8.732;2023-09-12T14:49:19;6.93;;;6.43;;
8001;SDS011;4046;48.774;8.732;2023-09-12T14:51:45;6.40;;;6.00;;
8001;SDS011;4046;48.774;8.732;2023-09-12T14:54:11;6.20;;;5.80;;
8001;SDS011;4046;48.774;8.732;2023-09-12T14:56:36;7.03;;;6.43;;
8001;SDS011;4046;48.774;8.732;2023-09-12T14:59:03;7.00;;;6.40;;
8001;SDS011;4046;48.774;8.732;2023-09-12T15:01:29;7.20;;;6.60;;
8001;SDS011;4046;48.774;8.732;2023-09-12T15:03:55;6.67;;;6.10;;
8001;SDS011;4046;48.774;8.732;2023-09-12T15:06:22;6.37;;;5.97;;
8001;SDS011;4046;48.774;8.732;2023-09-12T15:08:48;6.63;;;6.13;;
8001;SDS011;4046;48.774;8.732;2023-09-12T15:11:14;6.63;;;6.03;;
8001;SDS011;4046;48.774;8.732;2023-09-12T15:13:40;8.37;;;6.27;;
8001;SDS011;4046;48.774;8.732;2023-09-12T15:16:06;6.00;;;5.50;;
8001;SDS011;4046;48.774;8.732;2023-09-12T15:18:32;6.70;;;6.20;;
8001;SDS011;4046;48.774;8.732;2023-09-12T15:20:58;9.13;;;6.40;;
8001;SDS011;4046;48.774;8.732;2023-09-12T15:23:23;8.50;;;7.10;;
8001;SDS011;4046;48.774;8.732;2023-09-12T15:25:50;7.70;;;6.90;;
8001;SDS011;4046;48.774;8.732;2023-09-12T15:28:16;7.83;;;6.80;;
8001;SDS011;4046;48.774;8.732;2023-09-12T15:30:42;8.70;;;7.57;;